createdAt,value
2023-04-29T00:00:33.259Z,10.30
2023-04-29T00:03:55.161Z,10.20
2023-04-29T00:07:16.641Z,10.20
2023-04-29T00:10:39.535Z,10.10
2023-04-29T00:14:02.378Z,10.10
2023-04-29T00:17:23.937Z,10.10
2023-04-29T00:20:45.356Z,10.10
2023-04-29T00:24:07.563Z,10.10
2023-04-29T00:27:29.119Z,10.10
2023-04-29T00:30:51.842Z,10.10
2023-04-29T00:34:13.092Z,10.10
2023-04-29T00:37:34.529Z,10.10
2023-04-29T00:40:56.703Z,10.10
2023-04-29T00:44:18.164Z,10.10
2023-04-29T00:47:40.886Z,10.20
2023-04-29T00:51:02.774Z,10.10
2023-04-29T00:54:24.385Z,10.10
2023-04-29T00:57:48.213Z,10.00
2023-04-29T01:01:09.982Z,10.00
2023-04-29T01:04:32.678Z,9.90
2023-04-29T01:08:05.439Z,9.90
2023-04-29T01:11:35.648Z,9.90
2023-04-29T01:15:11.741Z,9.90
2023-04-29T01:18:37.642Z,9.90
2023-04-29T01:22:00.161Z,9.90
2023-04-29T01:25:22.938Z,9.90
2023-04-29T01:28:52.084Z,9.90
2023-04-29T01:32:18.452Z,9.90
2023-04-29T01:35:51.629Z,9.90
2023-04-29T01:39:16.342Z,9.90
2023-04-29T01:42:43.115Z,9.80
2023-04-29T01:46:07.311Z,9.80
2023-04-29T01:49:29.808Z,9.80
2023-04-29T01:52:51.195Z,9.70
2023-04-29T01:56:12.582Z,9.70
2023-04-29T01:59:36.362Z,9.70
2023-04-29T02:02:58.031Z,9.80
2023-04-29T02:06:19.533Z,9.80
2023-04-29T02:09:40.994Z,9.90
2023-04-29T02:13:02.710Z,9.90
2023-04-29T02:16:25.487Z,10.00
2023-04-29T02:19:46.876Z,9.90
2023-04-29T02:23:08.421Z,9.80
2023-04-29T02:26:29.910Z,9.70
2023-04-29T02:29:51.904Z,9.80
2023-04-29T02:33:14.879Z,9.80
2023-04-29T02:36:36.374Z,9.80
2023-04-29T02:39:57.882Z,9.80
2023-04-29T02:43:19.572Z,9.70
2023-04-29T02:46:45.285Z,9.70
2023-04-29T02:50:09.022Z,9.60
2023-04-29T02:53:30.592Z,9.60
2023-04-29T02:56:51.985Z,9.70
2023-04-29T03:00:13.852Z,9.60
2023-04-29T03:03:35.345Z,9.60
2023-04-29T03:06:58.270Z,9.70
2023-04-29T03:10:19.754Z,9.60
2023-04-29T03:13:41.027Z,9.50
2023-04-29T03:17:02.764Z,9.50
2023-04-29T03:20:24.722Z,9.50
2023-04-29T03:23:47.483Z,9.60
2023-04-29T03:27:09.176Z,9.60
2023-04-29T03:30:31.730Z,9.70
2023-04-29T03:33:53.531Z,9.70
2023-04-29T03:37:16.436Z,9.60
2023-04-29T03:40:39.902Z,9.60
2023-04-29T03:44:01.453Z,9.60
2023-04-29T03:47:22.726Z,9.60
2023-04-29T03:50:43.891Z,9.50
2023-04-29T03:54:05.359Z,9.50
2023-04-29T03:57:28.073Z,9.60
2023-04-29T04:00:49.488Z,9.50
2023-04-29T04:04:11.220Z,9.40
2023-04-29T04:07:32.933Z,9.40
2023-04-29T04:10:54.298Z,9.40
2023-04-29T04:14:16.954Z,9.30
2023-04-29T04:17:38.365Z,9.30
2023-04-29T04:21:05.834Z,9.30
2023-04-29T04:24:27.264Z,9.30
2023-04-29T04:27:48.735Z,9.20
2023-04-29T04:31:11.357Z,9.20
2023-04-29T04:34:32.872Z,9.30
2023-04-29T04:37:54.595Z,9.40
2023-04-29T04:41:16.082Z,9.30
2023-04-29T04:44:37.533Z,9.40
2023-04-29T04:48:00.189Z,9.50
2023-04-29T04:51:21.870Z,9.60
2023-04-29T04:54:47.157Z,9.60
2023-04-29T04:58:08.388Z,9.60
2023-04-29T05:01:29.807Z,9.60
2023-04-29T05:04:52.614Z,9.60
2023-04-29T05:08:13.926Z,9.50
2023-04-29T05:11:35.572Z,9.40
2023-04-29T05:14:56.789Z,9.50
2023-04-29T05:18:18.384Z,9.50
2023-04-29T05:21:42.057Z,9.50
2023-04-29T05:25:03.717Z,9.60
2023-04-29T05:28:27.572Z,9.70
2023-04-29T05:31:50.130Z,9.70
2023-04-29T05:35:11.536Z,10.10
2023-04-29T05:38:34.465Z,10.30
2023-04-29T05:41:56.311Z,10.60
2023-04-29T05:45:18.028Z,11.10
2023-04-29T05:48:39.457Z,11.20
2023-04-29T05:52:04.081Z,11.60
2023-04-29T05:55:26.658Z,12.00
2023-04-29T05:58:48.000Z,12.40
2023-04-29T06:02:10.879Z,13.00
2023-04-29T06:05:32.562Z,13.30
2023-04-29T06:08:54.030Z,13.50
2023-04-29T06:12:17.461Z,13.20
2023-04-29T06:15:38.950Z,12.80
2023-04-29T06:19:00.480Z,12.40
2023-04-29T06:22:22.234Z,12.20
2023-04-29T06:25:44.039Z,12.00
2023-04-29T06:29:06.924Z,12.20
2023-04-29T06:32:28.192Z,12.30
2023-04-29T06:35:49.644Z,12.50
2023-04-29T06:39:11.246Z,12.70
2023-04-29T06:42:32.537Z,12.80
2023-04-29T06:45:55.151Z,12.90
2023-04-29T06:49:16.196Z,13.00
2023-04-29T06:52:37.561Z,13.10
2023-04-29T06:55:59.013Z,13.10
2023-04-29T06:59:20.630Z,13.30
2023-04-29T07:02:43.587Z,13.50
2023-04-29T07:06:04.862Z,13.70
2023-04-29T07:09:27.519Z,14.20
2023-04-29T07:12:49.069Z,15.00
2023-04-29T07:16:17.058Z,15.90
2023-04-29T07:19:39.790Z,16.70
2023-04-29T07:23:00.988Z,17.20
2023-04-29T07:26:22.679Z,17.80
2023-04-29T07:29:44.170Z,18.20
2023-04-29T07:33:05.683Z,17.90
2023-04-29T07:36:28.656Z,18.20
2023-04-29T07:39:49.771Z,18.40
2023-04-29T07:43:11.550Z,18.30
2023-04-29T07:46:33.085Z,18.60
2023-04-29T07:49:54.472Z,18.60
2023-04-29T07:53:18.047Z,18.70
2023-04-29T07:56:39.322Z,18.10
2023-04-29T08:00:00.897Z,17.80
2023-04-29T08:03:22.776Z,18.50
2023-04-29T08:06:44.927Z,19.20
2023-04-29T08:10:09.157Z,19.10
2023-04-29T08:13:30.509Z,19.00
2023-04-29T08:16:52.002Z,18.50
2023-04-29T08:20:15.082Z,18.40
2023-04-29T08:23:36.465Z,18.40
2023-04-29T08:26:59.163Z,19.00
2023-04-29T08:30:20.394Z,19.10
2023-04-29T08:33:42.244Z,19.30
2023-04-29T08:37:04.037Z,19.30
2023-04-29T08:40:25.291Z,20.10
2023-04-29T08:43:48.489Z,20.50
2023-04-29T08:47:10.099Z,20.80
2023-04-29T08:50:32.277Z,20.70
2023-04-29T08:53:53.760Z,20.60
2023-04-29T08:57:15.459Z,20.60
2023-04-29T09:00:39.327Z,20.40
2023-04-29T09:04:11.056Z,20.30
2023-04-29T09:07:33.935Z,20.30
2023-04-29T09:10:56.499Z,19.60
2023-04-29T09:14:18.091Z,19.30
2023-04-29T09:17:42.946Z,18.60
2023-04-29T09:21:14.384Z,18.70
2023-04-29T09:24:35.835Z,18.90
2023-04-29T09:27:57.583Z,19.40
2023-04-29T09:31:28.924Z,19.20
2023-04-29T09:34:52.224Z,19.60
2023-04-29T09:38:14.854Z,19.40
2023-04-29T09:41:36.132Z,19.20
2023-04-29T09:44:57.503Z,19.10
2023-04-29T09:48:19.130Z,19.10
2023-04-29T09:51:54.444Z,18.80
2023-04-29T09:55:17.265Z,18.90
2023-04-29T09:58:39.105Z,19.10
2023-04-29T10:02:00.678Z,19.80
2023-04-29T10:05:23.435Z,20.50
2023-04-29T10:08:48.701Z,21.40
2023-04-29T10:12:10.990Z,22.20
2023-04-29T10:15:42.978Z,22.90
2023-04-29T10:19:08.706Z,23.20
2023-04-29T10:22:34.586Z,23.80
2023-04-29T10:25:59.988Z,24.20
2023-04-29T10:29:23.338Z,24.80
2023-04-29T10:32:51.169Z,25.40
2023-04-29T10:36:14.934Z,24.80
2023-04-29T10:39:43.761Z,24.10
2023-04-29T10:43:06.734Z,23.80
2023-04-29T10:46:28.471Z,23.30
2023-04-29T10:50:06.182Z,23.40
2023-04-29T10:53:28.723Z,23.80
2023-04-29T10:56:51.343Z,24.20
2023-04-29T11:00:23.241Z,23.40
2023-04-29T11:03:50.620Z,23.70
2023-04-29T11:07:28.070Z,24.20
2023-04-29T11:10:53.161Z,23.70
2023-04-29T11:14:15.985Z,23.30
2023-04-29T11:17:39.388Z,23.70
2023-04-29T11:21:13.920Z,24.30
2023-04-29T11:24:36.378Z,24.60
2023-04-29T11:27:59.476Z,25.10
2023-04-29T11:31:21.252Z,25.40
2023-04-29T11:34:44.004Z,25.80
2023-04-29T11:38:05.915Z,25.50
2023-04-29T11:41:27.629Z,24.90
2023-04-29T11:44:52.335Z,25.00
2023-04-29T11:48:19.795Z,25.90
2023-04-29T11:51:42.749Z,26.30
2023-04-29T11:55:04.336Z,26.40
2023-04-29T11:58:26.014Z,26.80
2023-04-29T12:01:47.705Z,26.10
2023-04-29T12:05:09.953Z,25.00
2023-04-29T12:08:34.020Z,25.30
2023-04-29T12:11:55.419Z,24.70
2023-04-29T12:15:17.219Z,24.90
2023-04-29T12:18:38.936Z,25.60
2023-04-29T12:22:00.826Z,25.70
2023-04-29T12:25:26.194Z,23.60
2023-04-29T12:28:47.824Z,22.60
2023-04-29T12:32:13.524Z,23.90
2023-04-29T12:35:36.891Z,25.20
2023-04-29T12:39:00.318Z,26.70
2023-04-29T12:42:22.828Z,27.50
2023-04-29T12:45:43.952Z,28.20
2023-04-29T12:49:06.592Z,28.70
2023-04-29T12:52:28.009Z,27.10
2023-04-29T12:55:49.826Z,26.00
2023-04-29T12:59:12.589Z,26.30
2023-04-29T13:02:33.904Z,24.50
2023-04-29T13:05:55.444Z,24.70
2023-04-29T13:09:18.963Z,24.40
2023-04-29T13:12:40.832Z,24.10
2023-04-29T13:16:03.452Z,23.70
2023-04-29T13:19:43.483Z,23.00
2023-04-29T13:23:06.389Z,22.20
2023-04-29T13:26:27.872Z,22.00
2023-04-29T13:29:49.068Z,21.80
2023-04-29T13:33:13.576Z,21.40
2023-04-29T13:36:35.059Z,20.80
2023-04-29T13:39:57.636Z,20.20
2023-04-29T13:43:30.040Z,19.90
2023-04-29T13:46:58.532Z,19.70
2023-04-29T13:50:50.628Z,19.50
2023-04-29T13:54:37.438Z,19.20
2023-04-29T14:01:26.044Z,19.10
2023-04-29T14:04:50.220Z,19.10
2023-04-29T14:08:12.999Z,19.30
2023-04-29T14:11:36.602Z,19.20
2023-04-29T14:15:00.137Z,19.10
2023-04-29T14:18:22.212Z,19.00
2023-04-29T14:21:43.882Z,18.80
2023-04-29T14:25:08.383Z,18.50
2023-04-29T14:28:29.857Z,18.30
2023-04-29T14:31:51.543Z,18.10
2023-04-29T14:35:13.192Z,17.80
2023-04-29T14:38:34.412Z,17.70
2023-04-29T14:41:57.252Z,17.70
2023-04-29T14:45:18.664Z,17.70
2023-04-29T14:48:40.222Z,17.70
2023-04-29T14:52:02.002Z,17.70
2023-04-29T14:55:23.361Z,17.80
2023-04-29T14:58:46.202Z,17.70
2023-04-29T15:02:07.991Z,17.80
2023-04-29T15:05:30.419Z,18.10
2023-04-29T15:08:52.323Z,18.10
2023-04-29T15:12:14.329Z,18.00
2023-04-29T15:15:37.247Z,17.70
2023-04-29T15:18:59.177Z,17.50
2023-04-29T15:22:20.663Z,17.00
2023-04-29T15:25:42.164Z,16.60
2023-04-29T15:29:03.992Z,16.60
2023-04-29T15:32:31.468Z,16.50
2023-04-29T15:35:53.974Z,16.40
2023-04-29T15:39:16.545Z,16.30
2023-04-29T15:42:38.103Z,16.20
2023-04-29T15:46:00.146Z,16.10
2023-04-29T15:49:24.425Z,15.90
2023-04-29T15:52:46.449Z,15.80
2023-04-29T15:56:07.748Z,15.60
2023-04-29T15:59:29.467Z,15.60
2023-04-29T16:02:50.939Z,15.50
2023-04-29T16:06:13.825Z,15.50
2023-04-29T16:09:36.169Z,15.50
2023-04-29T16:12:57.728Z,15.40
2023-04-29T16:16:19.412Z,15.30
2023-04-29T16:19:41.172Z,15.20
2023-04-29T16:23:03.735Z,15.10
2023-04-29T16:26:26.178Z,14.90
2023-04-29T16:29:47.736Z,14.70
2023-04-29T16:33:09.157Z,14.60
2023-04-29T16:36:30.497Z,14.50
2023-04-29T16:39:53.333Z,14.40
2023-04-29T16:43:15.286Z,14.50
2023-04-29T16:46:36.591Z,14.30
2023-04-29T16:49:58.060Z,14.30
2023-04-29T16:53:19.572Z,14.20
2023-04-29T16:56:42.381Z,14.10
2023-04-29T17:00:04.170Z,14.10
2023-04-29T17:03:25.467Z,14.00
2023-04-29T17:06:47.173Z,13.90
2023-04-29T17:10:09.606Z,13.80
2023-04-29T17:13:32.184Z,13.80
2023-04-29T17:16:53.706Z,13.70
2023-04-29T17:20:15.137Z,13.50
2023-04-29T17:23:37.480Z,13.50
2023-04-29T17:26:59.744Z,13.40
2023-04-29T17:30:22.459Z,13.30
2023-04-29T17:33:54.680Z,13.10
2023-04-29T17:37:17.503Z,13.10
2023-04-29T17:40:38.805Z,13.00
2023-04-29T17:44:00.233Z,12.80
2023-04-29T17:47:23.319Z,12.70
2023-04-29T17:50:44.783Z,12.60
2023-04-29T17:54:07.673Z,12.50
2023-04-29T17:57:29.559Z,12.40
2023-04-29T18:00:52.158Z,12.30
2023-04-29T18:04:15.056Z,12.30
2023-04-29T18:07:36.276Z,12.30
2023-04-29T18:10:57.461Z,12.20
2023-04-29T18:14:19.092Z,12.10
2023-04-29T18:17:40.693Z,12.10
2023-04-29T18:21:03.556Z,11.90
2023-04-29T18:24:26.015Z,11.80
2023-04-29T18:27:47.987Z,11.70
2023-04-29T18:31:09.538Z,11.70
2023-04-29T18:34:31.149Z,11.60
2023-04-29T18:37:53.589Z,11.50
2023-04-29T18:41:14.975Z,11.50
2023-04-29T18:44:36.473Z,11.50
2023-04-29T18:47:57.882Z,11.30
2023-04-29T18:51:19.372Z,11.20
2023-04-29T18:54:42.316Z,11.10
2023-04-29T18:58:03.777Z,11.00
2023-04-29T19:01:25.781Z,10.90
2023-04-29T19:04:47.094Z,11.00
2023-04-29T19:08:08.423Z,10.90
2023-04-29T19:11:31.469Z,10.80
2023-04-29T19:14:52.799Z,10.80
2023-04-29T19:18:14.850Z,10.70
2023-04-29T19:21:37.286Z,10.60
2023-04-29T19:24:58.533Z,10.60
2023-04-29T19:28:21.418Z,10.50
2023-04-29T19:31:42.836Z,10.50
2023-04-29T19:35:04.550Z,10.40
2023-04-29T19:38:26.001Z,10.40
2023-04-29T19:41:47.454Z,10.30
2023-04-29T19:45:12.462Z,10.20
2023-04-29T19:48:34.245Z,10.10
2023-04-29T19:51:56.003Z,10.00
2023-04-29T19:55:17.886Z,10.00
2023-04-29T19:58:39.356Z,9.90
2023-04-29T20:02:02.257Z,9.90
2023-04-29T20:05:23.893Z,9.80
2023-04-29T20:08:45.451Z,9.70
2023-04-29T20:12:07.009Z,9.70
2023-04-29T20:15:28.391Z,9.60
2023-04-29T20:18:50.853Z,9.60
2023-04-29T20:22:13.293Z,9.50
2023-04-29T20:25:34.912Z,9.50
2023-04-29T20:28:56.432Z,9.40
2023-04-29T20:32:18.361Z,9.30
2023-04-29T20:35:41.319Z,9.30
2023-04-29T20:39:02.748Z,9.30
2023-04-29T20:42:24.338Z,9.20
2023-04-29T20:45:45.947Z,9.10
2023-04-29T20:49:07.362Z,9.10
2023-04-29T20:52:30.508Z,9.00
2023-04-29T20:55:51.684Z,9.00
2023-04-29T20:59:12.819Z,8.90
2023-04-29T21:02:34.304Z,8.90
2023-04-29T21:05:56.341Z,8.90
2023-04-29T21:09:19.011Z,8.80
2023-04-29T21:12:40.636Z,8.70
2023-04-29T21:16:02.245Z,8.70
2023-04-29T21:19:23.801Z,8.70
2023-04-29T21:22:45.790Z,8.70
2023-04-29T21:26:08.237Z,8.60
2023-04-29T21:29:29.705Z,8.50
2023-04-29T21:32:51.179Z,8.40
2023-04-29T21:36:13.136Z,8.40
2023-04-29T21:39:34.609Z,8.40
2023-04-29T21:42:58.859Z,8.30
2023-04-29T21:46:21.046Z,8.30
2023-04-29T21:49:42.562Z,8.30
2023-04-29T21:53:03.665Z,8.20
2023-04-29T21:56:25.122Z,8.20
2023-04-29T21:59:48.979Z,8.10
2023-04-29T22:03:10.905Z,8.10
2023-04-29T22:06:33.369Z,8.10
2023-04-29T22:09:54.757Z,8.10
2023-04-29T22:13:16.652Z,7.90
2023-04-29T22:16:39.368Z,7.90
2023-04-29T22:20:00.681Z,7.90
2023-04-29T22:23:22.589Z,7.90
2023-04-29T22:26:44.073Z,7.90
2023-04-29T22:30:06.544Z,7.90
2023-04-29T22:33:29.834Z,7.90
2023-04-29T22:36:50.917Z,7.80
2023-04-29T22:40:13.654Z,7.80
2023-04-29T22:43:34.872Z,7.70
2023-04-29T22:46:56.516Z,7.70
2023-04-29T22:50:19.634Z,7.60
2023-04-29T22:53:40.836Z,7.60
2023-04-29T22:57:03.489Z,7.50
2023-04-29T23:00:24.726Z,7.40
2023-04-29T23:03:46.161Z,7.40
2023-04-29T23:07:08.955Z,7.40
2023-04-29T23:10:32.626Z,7.40
2023-04-29T23:13:54.643Z,7.40
2023-04-29T23:17:16.085Z,7.40
2023-04-29T23:20:38.002Z,7.30
2023-04-29T23:24:00.715Z,7.30
2023-04-29T23:27:22.039Z,7.20
2023-04-29T23:30:43.791Z,7.20
2023-04-29T23:34:05.393Z,7.20
2023-04-29T23:37:26.508Z,7.10
2023-04-29T23:40:49.266Z,7.00
2023-04-29T23:44:10.797Z,7.00
2023-04-29T23:47:32.300Z,7.00
2023-04-29T23:50:53.684Z,7.00
2023-04-29T23:54:15.018Z,6.90
2023-04-29T23:57:37.846Z,6.90
